Time;durP1;ratioP1;P1;durP2;ratioP2;P2;SDS_P1;SDS_P2;PMS_P1;PMS_P2;Temp;Humidity;BMP_temperature;BMP_pressure;BME280_temperature;BME280_humidity;BME280_pressure;Samples;Min_cycle;Max_cycle;Signal;HPM_P1;HPM_P2
2023/09/15 00:01:39;;;;;;;27.15;20.77;;;15.80;99.90;;;;;;5073070;28;20092;-70
2023/09/15 00:04:06;;;;;;;32.67;24.80;;;15.70;99.90;;;;;;5073856;28;20504;-70
2023/09/15 00:06:35;;;;;;;36.72;24.63;;;15.80;99.90;;;;;;5071589;28;20380;-71
2023/09/15 00:09:06;;;;;;;32.30;23.58;;;15.80;99.90;;;;;;5073964;28;20033;-70
2023/09/15 00:11:42;;;;;;;31.63;24.30;;;15.70;99.90;;;;;;5077250;28;20377;-70
2023/09/15 00:14:09;;;;;;;35.53;23.05;;;15.70;99.90;;;;;;5068758;28;20071;-70
2023/09/15 00:16:35;;;;;;;31.77;23.38;;;15.70;99.90;;;;;;5064749;28;20090;-70
2023/09/15 00:19:03;;;;;;;37.88;26.25;;;15.70;99.90;;;;;;5077588;28;20115;-70
2023/09/15 00:21:29;;;;;;;26.27;21.88;;;15.60;99.90;;;;;;5071611;28;20508;-70
2023/09/15 00:23:54;;;;;;;26.80;21.17;;;15.50;99.90;;;;;;5074194;28;20052;-70
2023/09/15 00:26:23;;;;;;;24.40;20.02;;;15.40;99.90;;;;;;5076511;28;20518;-70
2023/09/15 00:28:49;;;;;;;26.83;21.08;;;15.30;99.90;;;;;;5077317;28;20028;-70
2023/09/15 00:31:15;;;;;;;26.40;21.60;;;15.40;99.90;;;;;;5085056;28;20012;-70
2023/09/15 00:33:41;;;;;;;30.02;21.75;;;15.30;99.90;;;;;;5079644;28;20027;-70
2023/09/15 00:36:06;;;;;;;26.58;20.33;;;15.30;99.90;;;;;;5077199;28;20368;-70
2023/09/15 00:38:34;;;;;;;30.17;20.48;;;15.40;99.90;;;;;;5079443;28;20374;-70
2023/09/15 00:41:00;;;;;;;30.80;22.98;;;15.30;99.90;;;;;;5073810;28;20490;-71
2023/09/15 00:43:26;;;;;;;28.60;22.05;;;15.30;99.90;;;;;;5067836;28;20488;-71
2023/09/15 00:45:51;;;;;;;29.05;20.60;;;15.40;99.90;;;;;;5066786;28;20032;-71
2023/09/15 00:48:18;;;;;;;26.58;18.75;;;15.40;99.90;;;;;;5078309;28;20464;-71
2023/09/15 00:50:45;;;;;;;26.00;18.23;;;15.40;99.90;;;;;;5083374;28;20028;-71
2023/09/15 00:53:17;;;;;;;20.90;17.60;;;15.40;99.90;;;;;;5073175;28;20158;-71
2023/09/15 00:55:44;;;;;;;21.20;16.57;;;15.40;99.90;;;;;;5068682;28;20099;-71
2023/09/15 00:58:13;;;;;;;18.83;15.32;;;15.40;99.90;;;;;;5076029;28;20225;-71
2023/09/15 01:00:43;;;;;;;17.83;15.60;;;15.50;99.90;;;;;;5075806;28;20020;-71
2023/09/15 01:03:17;;;;;;;19.75;14.07;;;15.40;99.90;;;;;;5079640;28;20021;-71
2023/09/15 01:05:45;;;;;;;17.45;15.48;;;15.50;99.90;;;;;;5069705;28;20020;-71
2023/09/15 01:08:12;;;;;;;29.00;14.20;;;15.40;99.90;;;;;;5073645;28;20036;-71
2023/09/15 01:10:39;;;;;;;20.08;15.27;;;15.40;99.90;;;;;;5074049;28;20056;-71
2023/09/15 01:13:05;;;;;;;21.23;15.98;;;15.30;99.90;;;;;;5077711;28;20017;-71
2023/09/15 01:15:54;;;;;;;24.98;17.23;;;15.30;99.90;;;;;;5083191;28;20021;-71
2023/09/15 01:18:31;;;;;;;22.48;15.60;;;15.30;99.90;;;;;;5068375;28;20505;-71
2023/09/15 01:21:11;;;;;;;24.25;17.98;;;15.30;99.90;;;;;;5071755;28;20150;-71
2023/09/15 01:23:52;;;;;;;23.60;18.20;;;15.30;99.90;;;;;;5081170;28;20099;-71
2023/09/15 01:26:24;;;;;;;21.00;18.23;;;15.20;99.90;;;;;;5072273;28;20025;-71
2023/09/15 01:29:18;;;;;;;22.15;17.58;;;15.20;99.90;;;;;;5080449;28;20409;-71
2023/09/15 01:31:45;;;;;;;24.88;18.35;;;15.10;99.90;;;;;;5076648;28;20028;-71
2023/09/15 01:34:13;;;;;;;25.20;17.92;;;15.10;99.90;;;;;;5077786;28;20049;-71
2023/09/15 01:36:40;;;;;;;21.23;16.95;;;15.10;99.90;;;;;;5069920;28;20013;-71
2023/09/15 01:39:05;;;;;;;29.05;21.45;;;15.10;99.90;;;;;;5074434;28;20029;-71
2023/09/15 01:41:31;;;;;;;25.75;19.58;;;15.00;99.90;;;;;;5072661;28;20024;-71
2023/09/15 01:43:57;;;;;;;29.13;20.83;;;14.90;99.90;;;;;;5068817;28;20103;-71
2023/09/15 01:46:23;;;;;;;22.20;16.20;;;15.00;99.90;;;;;;5069132;28;20024;-71
2023/09/15 01:48:53;;;;;;;27.15;18.58;;;15.00;99.90;;;;;;5074404;28;20021;-71
2023/09/15 01:51:21;;;;;;;24.05;18.10;;;15.00;99.90;;;;;;5083115;28;20047;-71
2023/09/15 01:53:47;;;;;;;24.63;18.33;;;14.90;99.90;;;;;;5075621;28;20021;-71
2023/09/15 01:56:15;;;;;;;24.27;19.45;;;14.70;99.90;;;;;;5070923;28;20032;-71
2023/09/15 01:58:41;;;;;;;21.73;18.52;;;14.70;99.90;;;;;;5069075;28;20033;-71
2023/09/15 02:01:07;;;;;;;25.48;18.52;;;14.70;99.90;;;;;;5075785;28;20024;-71
2023/09/15 02:03:32;;;;;;;24.40;18.58;;;14.70;99.90;;;;;;5073217;28;20060;-71
2023/09/15 02:06:03;;;;;;;25.75;20.13;;;14.70;99.90;;;;;;5079366;28;20065;-71
2023/09/15 02:08:28;;;;;;;25.60;20.15;;;14.70;99.90;;;;;;5071349;28;20074;-71
2023/09/15 02:10:54;;;;;;;24.52;21.17;;;14.70;99.90;;;;;;5072705;28;20024;-71
2023/09/15 02:13:20;;;;;;;25.02;20.90;;;14.60;99.90;;;;;;5074022;28;20486;-71
2023/09/15 02:15:46;;;;;;;26.98;21.15;;;14.60;99.90;;;;;;5074001;28;20024;-71
2023/09/15 02:18:12;;;;;;;24.35;18.65;;;14.60;99.90;;;;;;5077005;28;20033;-71
2023/09/15 02:20:38;;;;;;;24.80;17.95;;;14.60;99.90;;;;;;5066377;28;20036;-71
2023/09/15 02:23:03;;;;;;;25.10;18.92;;;14.70;99.90;;;;;;5075912;28;20024;-71
2023/09/15 02:25:30;;;;;;;25.35;16.48;;;14.60;99.90;;;;;;5065970;28;20064;-71
2023/09/15 02:27:57;;;;;;;24.38;16.80;;;14.60;99.90;;;;;;5075004;28;20031;-71
2023/09/15 02:30:23;;;;;;;23.50;18.05;;;14.60;99.90;;;;;;5062451;28;20113;-71
2023/09/15 02:32:49;;;;;;;24.38;17.83;;;14.60;99.90;;;;;;5072500;28;20029;-71
2023/09/15 02:35:14;;;;;;;25.27;17.92;;;14.60;99.90;;;;;;5076043;28;20028;-71
2023/09/15 02:37:40;;;;;;;22.98;17.70;;;14.50;99.90;;;;;;5074588;28;20399;-70
2023/09/15 02:40:07;;;;;;;22.15;17.52;;;14.30;99.90;;;;;;5079119;28;20121;-71
2023/09/15 02:42:35;;;;;;;25.10;18.98;;;14.30;99.90;;;;;;5067062;28;20017;-70
2023/09/15 02:45:01;;;;;;;30.58;18.90;;;14.30;99.90;;;;;;5078566;28;20020;-71
2023/09/15 02:47:30;;;;;;;28.05;19.38;;;14.30;99.90;;;;;;5068642;28;20434;-71
2023/09/15 02:49:55;;;;;;;29.75;21.13;;;14.40;99.90;;;;;;5078073;28;20516;-71
2023/09/15 02:52:21;;;;;;;26.52;20.95;;;14.40;99.90;;;;;;5078217;28;20037;-71
2023/09/15 02:54:50;;;;;;;26.95;19.23;;;14.40;99.90;;;;;;5067773;28;20397;-71
2023/09/15 02:57:16;;;;;;;25.90;21.88;;;14.40;99.90;;;;;;5079682;28;20024;-71
2023/09/15 02:59:41;;;;;;;28.05;21.30;;;14.40;99.90;;;;;;5074140;28;20496;-70
2023/09/15 03:02:12;;;;;;;29.17;22.98;;;14.30;99.90;;;;;;5073551;28;20020;-71
2023/09/15 03:04:39;;;;;;;27.83;21.20;;;14.30;99.90;;;;;;5073428;28;20020;-71
2023/09/15 03:07:06;;;;;;;38.30;22.80;;;14.30;99.90;;;;;;5078583;28;20020;-71
2023/09/15 03:09:32;;;;;;;29.20;21.85;;;14.30;99.90;;;;;;5068745;28;20049;-71
2023/09/15 03:11:58;;;;;;;31.77;21.30;;;14.20;99.90;;;;;;5067163;28;20497;-71
2023/09/15 03:14:24;;;;;;;33.22;22.20;;;14.20;99.90;;;;;;5072818;28;20028;-71
2023/09/15 03:16:49;;;;;;;29.85;20.52;;;14.10;99.90;;;;;;5075276;28;20069;-71
2023/09/15 03:19:15;;;;;;;29.25;20.25;;;14.20;99.90;;;;;;5080401;28;20068;-71
2023/09/15 03:21:41;;;;;;;30.08;20.55;;;14.20;99.90;;;;;;5071935;28;20027;-71
2023/09/15 03:24:08;;;;;;;29.92;21.15;;;14.20;99.90;;;;;;5081951;28;20024;-71
2023/09/15 03:26:35;;;;;;;30.35;19.20;;;14.20;99.90;;;;;;5070676;28;20031;-71
2023/09/15 03:29:01;;;;;;;25.17;17.00;;;14.20;99.90;;;;;;5072534;28;20016;-71
2023/09/15 03:31:27;;;;;;;20.77;16.55;;;14.20;99.90;;;;;;5080590;28;20024;-71
2023/09/15 03:33:53;;;;;;;21.25;16.77;;;14.20;99.90;;;;;;5073218;28;20063;-71
2023/09/15 03:36:18;;;;;;;23.00;16.38;;;14.20;99.90;;;;;;5069724;28;20103;-70
2023/09/15 03:38:44;;;;;;;24.80;17.60;;;14.20;99.90;;;;;;5078278;28;20366;-71
2023/09/15 03:41:11;;;;;;;22.50;15.23;;;14.30;99.90;;;;;;5078613;28;20024;-71
2023/09/15 03:43:36;;;;;;;21.17;13.65;;;14.30;99.90;;;;;;5074779;28;20024;-71
2023/09/15 03:46:02;;;;;;;19.20;15.40;;;14.20;99.90;;;;;;5071671;28;20519;-71
2023/09/15 03:48:29;;;;;;;23.40;15.13;;;14.20;99.90;;;;;;5072605;28;20034;-71
2023/09/15 03:50:55;;;;;;;22.13;15.57;;;14.20;99.90;;;;;;5075464;28;20485;-71
2023/09/15 03:53:21;;;;;;;25.27;14.95;;;14.20;99.90;;;;;;5077003;28;20107;-71
2023/09/15 03:55:48;;;;;;;20.52;15.07;;;14.20;99.90;;;;;;5081569;28;20107;-71
2023/09/15 03:58:15;;;;;;;23.08;16.42;;;14.10;99.90;;;;;;5074914;28;20028;-71
2023/09/15 04:00:40;;;;;;;16.67;13.50;;;14.00;99.90;;;;;;5069209;28;20016;-71
2023/09/15 04:03:06;;;;;;;21.00;14.25;;;14.10;99.90;;;;;;5069307;28;20035;-71
2023/09/15 04:05:32;;;;;;;19.15;15.27;;;14.00;99.90;;;;;;5079495;28;20089;-71
2023/09/15 04:07:58;;;;;;;22.70;16.20;;;14.00;99.90;;;;;;5070781;28;20028;-71
2023/09/15 04:10:23;;;;;;;20.58;15.25;;;14.00;99.90;;;;;;5079946;28;20032;-71
2023/09/15 04:12:49;;;;;;;26.30;16.23;;;14.00;99.90;;;;;;5073566;28;20107;-71
2023/09/15 04:15:15;;;;;;;23.50;15.32;;;14.00;99.90;;;;;;5075911;28;20021;-71
2023/09/15 04:17:41;;;;;;;23.35;15.57;;;14.00;99.90;;;;;;5070200;28;20025;-71
2023/09/15 04:20:09;;;;;;;20.23;14.82;;;14.00;99.90;;;;;;5080655;28;20069;-71
2023/09/15 04:22:40;;;;;;;18.73;16.23;;;14.00;99.90;;;;;;5072050;28;20028;-71
2023/09/15 04:25:07;;;;;;;20.33;16.73;;;14.00;99.90;;;;;;5077132;28;20119;-70
2023/09/15 04:27:33;;;;;;;20.25;17.02;;;14.00;99.90;;;;;;5073662;28;20041;-70
2023/09/15 04:30:00;;;;;;;21.48;15.02;;;13.90;99.90;;;;;;5075820;28;20013;-70
2023/09/15 04:32:26;;;;;;;24.98;16.73;;;14.00;99.90;;;;;;5077607;28;20024;-70
2023/09/15 04:34:52;;;;;;;23.35;17.02;;;13.90;99.90;;;;;;5077431;28;20028;-71
2023/09/15 04:37:19;;;;;;;22.27;15.57;;;13.80;99.90;;;;;;5074397;28;20450;-71
2023/09/15 04:39:45;;;;;;;18.45;13.48;;;13.70;99.90;;;;;;5076571;28;20032;-70
2023/09/15 04:42:12;;;;;;;24.20;15.07;;;13.80;99.90;;;;;;5077047;28;20043;-70
2023/09/15 04:44:38;;;;;;;20.17;15.63;;;13.70;99.90;;;;;;5073791;28;20013;-71
2023/09/15 04:47:04;;;;;;;22.60;16.23;;;13.70;99.90;;;;;;5075408;28;20543;-70
2023/09/15 04:49:31;;;;;;;20.38;14.63;;;13.70;99.90;;;;;;5076281;28;20480;-71
2023/09/15 04:51:57;;;;;;;16.27;13.05;;;13.70;99.90;;;;;;5080002;28;20089;-71
2023/09/15 04:54:22;;;;;;;16.20;13.18;;;13.70;99.90;;;;;;5071231;28;20013;-71
2023/09/15 04:56:48;;;;;;;17.15;13.43;;;13.60;99.90;;;;;;5078057;28;20207;-71
2023/09/15 04:59:18;;;;;;;17.85;14.10;;;13.70;99.90;;;;;;5066066;28;20102;-70
2023/09/15 05:01:45;;;;;;;19.77;13.70;;;13.70;99.90;;;;;;5072851;28;20177;-71
2023/09/15 05:04:13;;;;;;;17.70;14.27;;;13.70;99.90;;;;;;5075323;28;20354;-71
2023/09/15 05:06:39;;;;;;;29.20;15.98;;;13.70;99.90;;;;;;5075911;28;20028;-70
2023/09/15 05:09:06;;;;;;;22.40;15.10;;;13.60;99.90;;;;;;5076419;28;20040;-71
2023/09/15 05:11:32;;;;;;;26.73;14.98;;;13.70;99.90;;;;;;5077350;28;20021;-70
2023/09/15 05:13:57;;;;;;;20.17;14.90;;;13.60;99.90;;;;;;5076048;28;20040;-70
2023/09/15 05:16:23;;;;;;;19.70;15.88;;;13.70;99.90;;;;;;5070744;28;20016;-70
2023/09/15 05:18:49;;;;;;;21.73;15.35;;;13.60;99.90;;;;;;5078071;28;20442;-71
2023/09/15 05:21:15;;;;;;;22.15;15.75;;;13.60;99.90;;;;;;5072442;28;20577;-71
2023/09/15 05:23:41;;;;;;;16.65;13.75;;;13.60;99.90;;;;;;5080777;28;20112;-71
2023/09/15 05:26:07;;;;;;;16.27;12.88;;;13.60;99.90;;;;;;5073360;28;20024;-71
2023/09/15 05:28:33;;;;;;;19.60;12.57;;;13.50;99.90;;;;;;5078883;28;20021;-71
2023/09/15 05:30:59;;;;;;;16.00;13.30;;;13.60;99.90;;;;;;5068304;28;20024;-71
2023/09/15 05:33:28;;;;;;;19.05;13.63;;;13.50;99.90;;;;;;5080342;28;20484;-71
2023/09/15 05:35:55;;;;;;;18.52;14.55;;;13.50;99.90;;;;;;5065585;28;20029;-71
2023/09/15 05:38:22;;;;;;;24.83;15.68;;;13.50;99.90;;;;;;5082838;28;20095;-71
2023/09/15 05:40:47;;;;;;;29.55;15.60;;;13.50;99.90;;;;;;5078248;28;20055;-71
2023/09/15 05:43:13;;;;;;;18.75;14.15;;;13.50;99.90;;;;;;5070488;28;20055;-71
2023/09/15 05:45:39;;;;;;;22.20;17.13;;;13.50;99.90;;;;;;5076085;28;20480;-71
2023/09/15 05:48:04;;;;;;;21.83;16.50;;;13.40;99.90;;;;;;5075980;28;20420;-71
2023/09/15 05:50:30;;;;;;;23.05;15.30;;;13.40;99.90;;;;;;5069519;28;20062;-71
2023/09/15 05:52:56;;;;;;;23.27;16.35;;;13.50;99.90;;;;;;5069792;28;20025;-71
2023/09/15 05:55:21;;;;;;;23.77;17.38;;;13.40;99.90;;;;;;5081711;28;20020;-71
2023/09/15 05:57:47;;;;;;;19.00;15.20;;;13.40;99.90;;;;;;5067033;28;20032;-71
2023/09/15 06:00:13;;;;;;;21.58;15.75;;;13.50;99.90;;;;;;5077812;28;20484;-71
2023/09/15 06:02:39;;;;;;;22.75;16.30;;;13.50;99.90;;;;;;5070777;28;20377;-71
2023/09/15 06:05:06;;;;;;;24.08;16.42;;;13.40;99.90;;;;;;5069402;28;20060;-70
2023/09/15 06:07:32;;;;;;;20.77;15.75;;;13.50;99.90;;;;;;5078324;28;20028;-71
2023/09/15 06:09:57;;;;;;;24.15;16.90;;;13.50;99.90;;;;;;5069277;28;20021;-70
2023/09/15 06:12:23;;;;;;;23.48;16.65;;;13.50;99.90;;;;;;5073953;28;20062;-71
2023/09/15 06:14:49;;;;;;;24.70;16.25;;;13.60;99.90;;;;;;5078925;28;20104;-71
2023/09/15 06:17:14;;;;;;;26.65;17.55;;;13.60;99.90;;;;;;5069364;28;20362;-71
2023/09/15 06:19:40;;;;;;;21.90;16.73;;;13.60;99.90;;;;;;5079955;28;20028;-71
2023/09/15 06:22:06;;;;;;;21.00;15.95;;;13.70;99.90;;;;;;5068869;28;20021;-71
2023/09/15 06:24:32;;;;;;;21.30;17.02;;;13.70;99.90;;;;;;5071959;28;20055;-71
2023/09/15 06:26:57;;;;;;;26.35;17.25;;;13.70;99.90;;;;;;5072955;28;20086;-72
2023/09/15 06:29:23;;;;;;;23.10;16.10;;;13.70;99.90;;;;;;5073466;28;20105;-72
2023/09/15 06:31:49;;;;;;;22.30;16.50;;;13.80;99.90;;;;;;5070370;28;20067;-72
2023/09/15 06:34:15;;;;;;;21.58;15.73;;;13.80;99.90;;;;;;5075516;28;20601;-72
2023/09/15 06:36:40;;;;;;;19.85;16.02;;;13.80;99.90;;;;;;5073298;28;20021;-72
2023/09/15 06:39:07;;;;;;;23.73;14.73;;;13.90;99.90;;;;;;5069471;28;20046;-71
2023/09/15 06:41:33;;;;;;;30.17;15.02;;;13.90;99.90;;;;;;5075845;28;20493;-72
2023/09/15 06:43:59;;;;;;;21.20;14.98;;;13.90;99.90;;;;;;5074122;28;20039;-73
2023/09/15 06:46:26;;;;;;;21.77;14.90;;;13.90;99.90;;;;;;5072867;28;20016;-72
2023/09/15 06:48:52;;;;;;;20.63;15.43;;;14.00;99.90;;;;;;5071097;28;20469;-72
2023/09/15 06:51:18;;;;;;;22.17;15.68;;;14.00;99.90;;;;;;5074997;28;20095;-72
2023/09/15 06:53:45;;;;;;;17.98;14.73;;;14.10;99.90;;;;;;5076944;28;20064;-72
2023/09/15 06:56:11;;;;;;;18.88;15.52;;;14.10;99.90;;;;;;5071320;28;20025;-72
2023/09/15 06:58:36;;;;;;;19.52;15.20;;;14.10;99.90;;;;;;5073632;28;20086;-72
2023/09/15 07:01:03;;;;;;;20.10;14.85;;;14.20;99.90;;;;;;5063029;28;20059;-72
2023/09/15 07:03:29;;;;;;;27.75;16.67;;;14.20;99.90;;;;;;5074483;28;20107;-72
2023/09/15 07:05:55;;;;;;;22.50;15.65;;;14.20;99.90;;;;;;5073302;28;20115;-72
2023/09/15 07:08:20;;;;;;;23.92;15.88;;;14.20;99.90;;;;;;5070956;28;20063;-72
2023/09/15 07:10:51;;;;;;;21.58;15.15;;;14.30;99.90;;;;;;5078311;28;20024;-72
2023/09/15 07:13:17;;;;;;;22.08;16.17;;;14.30;99.90;;;;;;5061012;28;20520;-72
2023/09/15 07:15:44;;;;;;;19.88;13.75;;;14.30;99.90;;;;;;5073968;28;20100;-72
2023/09/15 07:18:10;;;;;;;22.10;14.55;;;14.30;99.90;;;;;;5075771;28;20078;-72
2023/09/15 07:20:36;;;;;;;19.77;13.32;;;14.40;99.90;;;;;;5078765;28;20024;-72
2023/09/15 07:23:03;;;;;;;14.85;12.75;;;14.40;99.90;;;;;;5063532;28;20377;-72
2023/09/15 07:25:29;;;;;;;18.25;14.50;;;14.40;99.90;;;;;;5079916;28;20050;-72
2023/09/15 07:27:55;;;;;;;21.70;14.05;;;14.50;99.90;;;;;;5081094;28;20024;-72
2023/09/15 07:30:21;;;;;;;20.35;13.10;;;14.50;99.90;;;;;;5073066;28;20141;-72
2023/09/15 07:32:47;;;;;;;18.23;13.13;;;14.60;99.90;;;;;;5081920;28;20064;-72
2023/09/15 07:35:14;;;;;;;23.67;13.35;;;14.60;99.90;;;;;;5081452;28;20480;-72
2023/09/15 07:37:40;;;;;;;18.40;12.77;;;14.70;99.90;;;;;;5074497;28;20385;-72
2023/09/15 07:40:07;;;;;;;21.02;13.57;;;14.70;99.90;;;;;;5079775;28;20043;-72
2023/09/15 07:42:34;;;;;;;21.35;14.32;;;14.80;99.90;;;;;;5055096;28;20021;-71
2023/09/15 07:45:00;;;;;;;17.55;12.77;;;14.80;99.90;;;;;;5083100;28;20384;-72
2023/09/15 07:47:26;;;;;;;25.30;15.30;;;14.90;99.90;;;;;;5080426;28;20027;-72
2023/09/15 07:49:52;;;;;;;19.30;13.88;;;14.90;99.90;;;;;;5075040;28;20021;-72
2023/09/15 07:52:19;;;;;;;18.08;13.38;;;14.90;99.90;;;;;;5079315;28;20104;-72
2023/09/15 07:54:45;;;;;;;22.38;13.45;;;15.10;99.90;;;;;;5072197;28;20151;-72
2023/09/15 07:57:11;;;;;;;21.45;14.77;;;15.20;99.90;;;;;;5079531;28;20525;-72
2023/09/15 07:59:37;;;;;;;20.98;12.25;;;15.20;99.90;;;;;;5068436;28;20036;-73
2023/09/15 08:02:06;;;;;;;18.42;12.43;;;15.30;99.90;;;;;;5080172;28;20055;-72
2023/09/15 08:04:32;;;;;;;13.27;10.65;;;15.40;99.90;;;;;;5083705;28;20020;-72
2023/09/15 08:06:57;;;;;;;17.92;11.98;;;15.50;99.90;;;;;;5070009;28;20040;-72
2023/09/15 08:09:23;;;;;;;20.17;12.00;;;15.60;99.90;;;;;;5083436;28;20040;-72
2023/09/15 08:11:49;;;;;;;17.65;12.38;;;15.70;99.90;;;;;;5072730;28;20029;-72
2023/09/15 08:14:15;;;;;;;12.23;10.38;;;15.80;99.90;;;;;;5081347;28;20027;-72
2023/09/15 08:16:40;;;;;;;15.73;9.98;;;15.80;99.90;;;;;;5076104;28;20021;-71
2023/09/15 08:19:07;;;;;;;14.52;9.48;;;16.00;99.90;;;;;;5075041;28;20614;-72
2023/09/15 08:21:33;;;;;;;15.38;8.75;;;16.00;99.90;;;;;;5084744;28;20024;-71
2023/09/15 08:23:59;;;;;;;13.75;9.57;;;16.20;99.90;;;;;;5074119;28;20082;-72
2023/09/15 08:26:25;;;;;;;10.02;9.02;;;16.20;99.90;;;;;;5071073;28;20025;-72
2023/09/15 08:28:51;;;;;;;15.65;8.90;;;16.30;99.90;;;;;;5078798;28;20029;-72
2023/09/15 08:31:17;;;;;;;10.20;7.78;;;16.50;99.90;;;;;;5080302;28;20031;-72
2023/09/15 08:33:43;;;;;;;9.38;8.07;;;16.50;99.90;;;;;;5079192;28;20405;-72
2023/09/15 08:36:09;;;;;;;14.18;8.25;;;16.60;99.90;;;;;;5074276;28;20016;-72
2023/09/15 08:38:34;;;;;;;11.27;7.72;;;16.70;99.90;;;;;;5081289;28;20028;-72
2023/09/15 08:41:20;;;;;;;10.68;6.40;;;16.70;99.90;;;;;;5075346;28;20032;-72
2023/09/15 08:43:47;;;;;;;12.50;7.47;;;16.90;99.90;;;;;;5076459;28;20465;-72
2023/09/15 08:46:14;;;;;;;11.82;6.50;;;17.00;99.90;;;;;;5080554;28;20030;-72
2023/09/15 08:48:41;;;;;;;9.35;7.10;;;17.00;99.90;;;;;;5070848;28;20032;-72
2023/09/15 08:51:07;;;;;;;9.10;6.80;;;17.20;99.90;;;;;;5074203;28;20033;-72
2023/09/15 08:53:34;;;;;;;11.88;6.57;;;17.30;99.90;;;;;;5078084;28;20504;-72
2023/09/15 08:56:00;;;;;;;9.63;6.82;;;17.40;99.90;;;;;;5070879;28;20020;-72
2023/09/15 08:58:27;;;;;;;12.52;6.65;;;17.40;99.90;;;;;;5081380;28;20119;-72
2023/09/15 09:00:54;;;;;;;8.13;6.15;;;17.50;99.90;;;;;;5078980;28;20039;-71
2023/09/15 09:03:23;;;;;;;11.90;6.00;;;17.50;99.90;;;;;;5077698;28;20020;-72
2023/09/15 09:05:49;;;;;;;8.43;6.40;;;17.60;99.90;;;;;;5069037;28;20032;-72
2023/09/15 09:08:21;;;;;;;7.60;6.30;;;17.80;99.90;;;;;;5074664;28;20086;-71
2023/09/15 09:10:48;;;;;;;9.25;7.22;;;17.90;99.90;;;;;;5077087;28;20097;-72
2023/09/15 09:13:14;;;;;;;8.95;6.95;;;18.00;99.90;;;;;;5065787;28;20013;-71
2023/09/15 09:15:42;;;;;;;9.13;6.45;;;18.20;99.90;;;;;;5074658;28;20052;-72
2023/09/15 09:18:18;;;;;;;11.77;6.75;;;18.20;99.90;;;;;;5070993;28;20039;-72
2023/09/15 09:20:46;;;;;;;10.27;7.07;;;18.40;99.90;;;;;;5076715;28;20028;-72
2023/09/15 09:23:12;;;;;;;13.30;7.22;;;18.50;99.90;;;;;;5071877;28;20523;-72
2023/09/15 09:25:39;;;;;;;8.55;6.10;;;18.70;99.90;;;;;;5075244;28;20008;-72
2023/09/15 09:28:06;;;;;;;11.13;6.30;;;18.80;99.90;;;;;;5071367;28;20464;-72
2023/09/15 09:30:31;;;;;;;8.80;6.03;;;18.90;99.90;;;;;;5073411;28;20076;-72
2023/09/15 09:32:58;;;;;;;9.38;6.45;;;19.10;99.90;;;;;;5074236;28;20028;-73
2023/09/15 09:35:24;;;;;;;8.93;6.97;;;19.30;99.90;;;;;;5078380;28;20431;-73
2023/09/15 09:37:52;;;;;;;11.32;6.97;;;19.30;99.90;;;;;;5077312;28;20551;-72
2023/09/15 09:40:18;;;;;;;9.80;6.47;;;19.40;99.90;;;;;;5069155;28;20119;-73
2023/09/15 09:42:45;;;;;;;18.25;7.10;;;19.70;99.90;;;;;;5071493;28;20422;-72
2023/09/15 09:45:11;;;;;;;10.43;6.68;;;19.80;99.90;;;;;;5062575;28;20024;-72
2023/09/15 09:47:37;;;;;;;10.73;6.95;;;20.00;99.90;;;;;;5071102;28;20016;-72
2023/09/15 09:50:11;;;;;;;11.52;6.25;;;20.20;99.90;;;;;;5075900;28;20036;-72
2023/09/15 09:52:38;;;;;;;9.13;5.68;;;20.30;99.90;;;;;;5063362;28;20017;-72
2023/09/15 09:55:08;;;;;;;8.73;6.32;;;20.40;99.90;;;;;;5076626;28;20030;-72
2023/09/15 09:57:37;;;;;;;11.48;5.72;;;20.40;99.90;;;;;;5068243;28;20596;-72
2023/09/15 10:00:04;;;;;;;7.22;5.75;;;20.60;99.90;;;;;;5077389;28;20033;-72
2023/09/15 10:02:30;;;;;;;10.52;5.35;;;20.80;99.90;;;;;;5076034;28;20064;-72
2023/09/15 10:04:56;;;;;;;7.57;4.43;;;20.90;99.90;;;;;;5076305;28;20021;-72
2023/09/15 10:07:22;;;;;;;8.98;5.30;;;20.90;99.90;;;;;;5065584;28;20023;-72
2023/09/15 10:09:48;;;;;;;10.15;6.25;;;21.00;99.90;;;;;;5072864;28;20036;-72
2023/09/15 10:12:14;;;;;;;8.13;5.20;;;21.10;99.90;;;;;;5074196;28;20082;-72
2023/09/15 10:14:41;;;;;;;6.53;5.35;;;21.30;99.90;;;;;;5068136;28;20090;-72
2023/09/15 10:17:07;;;;;;;5.95;4.40;;;21.40;99.90;;;;;;5076838;28;20051;-72
2023/09/15 10:19:33;;;;;;;6.70;4.88;;;21.50;99.90;;;;;;5067778;28;20063;-72
2023/09/15 10:22:00;;;;;;;9.98;6.20;;;21.60;99.90;;;;;;5077160;28;20113;-71
2023/09/15 10:24:31;;;;;;;6.07;5.20;;;21.70;99.90;;;;;;5072309;28;20039;-71
2023/09/15 10:26:57;;;;;;;6.45;5.60;;;21.70;99.90;;;;;;5072106;28;20146;-72
2023/09/15 10:29:30;;;;;;;10.95;5.85;;;21.80;99.90;;;;;;5073713;28;20066;-72
2023/09/15 10:31:59;;;;;;;7.65;4.85;;;21.80;99.90;;;;;;5074239;28;20050;-72
2023/09/15 10:34:25;;;;;;;8.27;4.72;;;22.00;99.90;;;;;;5070151;28;20445;-72
2023/09/15 10:36:52;;;;;;;6.03;4.85;;;21.90;99.90;;;;;;5077568;28;20085;-72
2023/09/15 10:39:19;;;;;;;4.97;4.45;;;22.00;99.90;;;;;;5067013;28;20069;-72
2023/09/15 10:41:45;;;;;;;6.20;4.75;;;22.10;99.90;;;;;;5082213;28;20024;-71
2023/09/15 10:44:11;;;;;;;8.18;4.20;;;22.10;99.90;;;;;;5076629;28;20500;-72
2023/09/15 10:46:42;;;;;;;7.05;5.13;;;22.00;99.90;;;;;;5069070;28;20056;-72
2023/09/15 10:49:18;;;;;;;5.90;4.93;;;22.00;99.90;;;;;;5075000;28;20021;-73
2023/09/15 10:51:57;;;;;;;6.25;4.50;;;22.20;99.90;;;;;;5071130;28;20036;-72
2023/09/15 10:54:30;;;;;;;7.10;5.45;;;22.20;99.90;;;;;;5071125;28;20103;-74
2023/09/15 10:56:56;;;;;;;8.52;4.63;;;22.40;99.90;;;;;;5069943;28;20025;-73
2023/09/15 10:59:22;;;;;;;4.78;4.22;;;22.50;99.90;;;;;;5071629;28;20111;-76
2023/09/15 11:01:48;;;;;;;3.60;3.17;;;22.60;99.90;;;;;;5078900;28;20528;-76
2023/09/15 11:04:22;;;;;;;4.75;3.88;;;22.70;99.90;;;;;;5075502;28;20028;-76
2023/09/15 11:06:49;;;;;;;6.55;3.80;;;22.70;99.90;;;;;;5064709;28;20032;-76
2023/09/15 11:09:16;;;;;;;4.47;4.05;;;22.90;99.90;;;;;;5075618;28;20039;-75
2023/09/15 11:11:52;;;;;;;5.68;3.58;;;23.00;99.90;;;;;;5065501;28;20029;-75
2023/09/15 11:14:19;;;;;;;4.47;3.75;;;23.10;99.90;;;;;;5070998;28;20431;-75
2023/09/15 11:16:54;;;;;;;8.05;4.43;;;23.20;99.90;;;;;;5064160;28;20071;-73
2023/09/15 11:19:23;;;;;;;6.30;4.47;;;23.20;99.90;;;;;;5075220;28;20081;-73
2023/09/15 11:21:49;;;;;;;6.80;4.45;;;23.10;99.90;;;;;;5082854;28;20492;-74
2023/09/15 11:24:16;;;;;;;4.93;3.80;;;23.20;99.90;;;;;;5071257;28;20020;-74
2023/09/15 11:26:45;;;;;;;4.32;3.72;;;23.20;99.90;;;;;;5074906;28;20028;-73
2023/09/15 11:29:12;;;;;;;6.00;3.90;;;23.30;99.90;;;;;;5060379;28;20520;-75
2023/09/15 11:31:38;;;;;;;10.13;3.80;;;23.50;99.90;;;;;;5073082;28;20031;-75
2023/09/15 11:34:08;;;;;;;5.18;3.85;;;23.60;99.90;;;;;;5072244;28;20024;-75
2023/09/15 11:36:35;;;;;;;4.47;3.70;;;23.70;99.90;;;;;;5078533;28;20030;-74
2023/09/15 11:39:10;;;;;;;6.00;3.22;;;23.70;99.90;;;;;;5068247;28;20037;-75
2023/09/15 11:41:38;;;;;;;4.35;3.60;;;23.70;99.90;;;;;;5061109;28;20021;-74
2023/09/15 11:44:06;;;;;;;7.93;4.00;;;23.40;99.90;;;;;;5074612;28;20024;-74
2023/09/15 11:46:43;;;;;;;5.18;3.25;;;23.50;99.90;;;;;;5073598;28;20023;-74
2023/09/15 11:49:10;;;;;;;5.68;4.05;;;23.70;99.90;;;;;;5069694;28;20025;-75
2023/09/15 11:51:36;;;;;;;6.07;4.22;;;23.80;99.90;;;;;;5067785;28;20016;-75
2023/09/15 11:54:06;;;;;;;9.75;3.17;;;23.80;99.90;;;;;;5074988;28;20020;-73
2023/09/15 11:56:32;;;;;;;7.68;4.13;;;23.70;99.90;;;;;;5071852;28;20025;-73
2023/09/15 11:58:59;;;;;;;8.95;3.60;;;23.70;99.90;;;;;;5070930;28;20044;-73
2023/09/15 12:01:25;;;;;;;6.45;3.80;;;23.50;99.90;;;;;;5079999;28;20121;-74
2023/09/15 12:03:52;;;;;;;5.00;3.38;;;23.60;99.90;;;;;;5072385;28;20116;-74
2023/09/15 12:06:19;;;;;;;4.65;3.20;;;23.50;99.90;;;;;;5070424;28;20028;-74
2023/09/15 12:08:50;;;;;;;5.03;2.65;;;23.60;99.90;;;;;;5066047;28;20036;-74
2023/09/15 12:11:17;;;;;;;5.72;4.00;;;23.80;99.90;;;;;;5069059;28;20037;-74
2023/09/15 12:13:43;;;;;;;5.85;3.88;;;23.80;99.90;;;;;;5077122;28;20109;-73
2023/09/15 12:16:17;;;;;;;7.13;4.03;;;23.60;99.90;;;;;;5066976;28;20017;-75
2023/09/15 12:18:46;;;;;;;4.57;3.47;;;23.70;99.90;;;;;;5076061;28;20028;-76
2023/09/15 12:21:12;;;;;;;5.97;3.10;;;23.80;99.90;;;;;;5078515;28;20068;-74
2023/09/15 12:23:38;;;;;;;8.45;3.47;;;23.80;99.90;;;;;;5071092;28;20020;-73
2023/09/15 12:26:03;;;;;;;7.43;4.18;;;23.70;99.90;;;;;;5076352;28;20798;-73
2023/09/15 12:28:29;;;;;;;6.22;3.00;;;23.70;99.90;;;;;;5078331;28;20060;-72
2023/09/15 12:30:59;;;;;;;3.95;2.83;;;24.00;99.90;;;;;;5074950;28;20027;-72
2023/09/15 12:33:26;;;;;;;9.13;2.60;;;23.80;99.90;;;;;;5084767;28;20042;-73